createdAt,value
2018-03-16T00:00:07.653Z,43.30
2018-03-16T00:02:09.264Z,41.93
2018-03-16T00:04:10.322Z,41.33
2018-03-16T00:06:11.279Z,43.00
2018-03-16T00:08:12.248Z,43.03
2018-03-16T00:10:13.203Z,44.07
2018-03-16T00:12:16.419Z,44.67
2018-03-16T00:14:17.398Z,34.77
2018-03-16T00:16:18.352Z,41.13
2018-03-16T00:18:19.308Z,42.07
2018-03-16T00:20:20.262Z,42.53
2018-03-16T00:22:33.642Z,41.90
2018-03-16T00:24:34.644Z,45.23
2018-03-16T00:26:35.649Z,43.77
2018-03-16T00:28:36.591Z,43.00
2018-03-16T00:30:37.588Z,43.00
2018-03-16T00:32:38.579Z,42.70
2018-03-16T00:34:39.614Z,41.17
2018-03-16T00:36:40.776Z,46.80
2018-03-16T00:38:42.419Z,43.17
2018-03-16T00:40:44.278Z,44.47
2018-03-16T00:42:46.192Z,43.57
2018-03-16T00:44:47.204Z,36.23
2018-03-16T00:46:48.238Z,45.20
2018-03-16T00:48:49.939Z,42.80
2018-03-16T00:50:50.895Z,43.80
2018-03-16T00:52:51.834Z,44.97
2018-03-16T00:54:52.788Z,42.70
2018-03-16T00:56:53.840Z,45.07
2018-03-16T00:58:54.848Z,41.40
2018-03-16T01:00:56.560Z,38.47
2018-03-16T01:02:57.511Z,45.57
2018-03-16T01:04:58.476Z,45.60
2018-03-16T01:06:59.576Z,41.83
2018-03-16T01:09:00.523Z,44.70
2018-03-16T01:11:01.567Z,44.10
2018-03-16T01:13:02.566Z,44.43
2018-03-16T01:15:03.548Z,39.50
2018-03-16T01:17:04.732Z,42.63
2018-03-16T01:19:05.666Z,41.20
2018-03-16T01:21:06.759Z,39.80
2018-03-16T01:23:07.743Z,41.27
2018-03-16T01:25:08.780Z,46.40
2018-03-16T01:27:09.722Z,43.03
2018-03-16T01:29:12.049Z,44.87
2018-03-16T01:31:13.038Z,43.90
2018-03-16T01:33:14.804Z,44.80
2018-03-16T01:35:16.527Z,43.07
2018-03-16T01:37:17.484Z,43.77
2018-03-16T01:39:19.201Z,44.27
2018-03-16T01:41:20.213Z,45.90
2018-03-16T01:43:21.221Z,41.67
2018-03-16T01:45:22.171Z,42.13
2018-03-16T01:47:23.130Z,43.50
2018-03-16T01:49:24.090Z,37.27
2018-03-16T01:51:25.033Z,42.90
2018-03-16T01:53:25.975Z,43.27
2018-03-16T01:55:27.051Z,41.97
2018-03-16T01:57:28.870Z,45.13
2018-03-16T01:59:29.921Z,45.90
2018-03-16T02:01:30.896Z,44.83
2018-03-16T02:03:31.866Z,43.80
2018-03-16T02:05:32.816Z,45.80
2018-03-16T02:07:33.766Z,42.83
2018-03-16T02:09:34.706Z,45.30
2018-03-16T02:11:35.683Z,44.63
2018-03-16T02:13:37.083Z,43.00
2018-03-16T02:15:38.903Z,45.20
2018-03-16T02:17:39.866Z,45.67
2018-03-16T02:19:41.071Z,47.57
2018-03-16T02:21:42.023Z,39.37
2018-03-16T02:23:43.015Z,45.20
2018-03-16T02:25:43.983Z,46.87
2018-03-16T02:27:46.049Z,48.07
2018-03-16T02:29:47.025Z,43.60
2018-03-16T02:31:48.046Z,44.67
2018-03-16T02:33:49.978Z,48.83
2018-03-16T02:35:50.981Z,44.80
2018-03-16T02:37:52.115Z,45.90
2018-03-16T02:39:53.975Z,45.03
2018-03-16T02:41:57.735Z,46.37
2018-03-16T02:44:04.210Z,45.63
2018-03-16T02:46:12.288Z,45.03
2018-03-16T02:48:14.424Z,43.47
2018-03-16T02:50:15.388Z,50.90
2018-03-16T02:52:16.572Z,48.50
2018-03-16T02:54:18.708Z,49.30
2018-03-16T02:56:20.461Z,50.77
2018-03-16T02:58:21.394Z,48.53
2018-03-16T03:00:22.372Z,47.40
2018-03-16T03:02:23.352Z,48.07
2018-03-16T03:04:24.295Z,47.80
2018-03-16T03:06:25.274Z,48.10
2018-03-16T03:08:26.234Z,46.40
2018-03-16T03:10:27.245Z,47.90
2018-03-16T03:12:28.252Z,38.30
2018-03-16T03:14:29.208Z,49.13
2018-03-16T03:16:30.999Z,48.20
2018-03-16T03:18:31.952Z,47.90
2018-03-16T03:20:34.079Z,45.90
2018-03-16T03:22:35.087Z,46.90
2018-03-16T03:24:36.056Z,47.17
2018-03-16T03:26:37.096Z,47.47
2018-03-16T03:28:38.063Z,45.97
2018-03-16T03:30:39.015Z,46.70
2018-03-16T03:32:39.994Z,49.37
2018-03-16T03:34:40.943Z,45.23
2018-03-16T03:36:42.504Z,47.80
2018-03-16T03:38:43.475Z,47.47
2018-03-16T03:40:44.495Z,52.33
2018-03-16T03:42:45.502Z,49.53
2018-03-16T03:44:46.456Z,48.50
2018-03-16T03:46:48.535Z,50.87
2018-03-16T03:48:49.486Z,51.10
2018-03-16T03:50:51.214Z,53.13
2018-03-16T03:52:52.232Z,50.40
2018-03-16T03:54:53.280Z,49.00
2018-03-16T03:56:54.268Z,51.00
2018-03-16T03:58:55.246Z,50.80
2018-03-16T04:00:56.940Z,50.03
2018-03-16T04:02:58.234Z,48.90
2018-03-16T04:04:59.521Z,49.80
2018-03-16T04:07:00.476Z,44.63
2018-03-16T04:09:02.536Z,51.00
2018-03-16T04:11:03.597Z,48.93
2018-03-16T04:13:04.577Z,45.77
2018-03-16T04:15:05.643Z,46.17
2018-03-16T04:17:07.391Z,52.10
2018-03-16T04:19:08.368Z,51.77
2018-03-16T04:21:10.084Z,51.43
2018-03-16T04:23:11.179Z,49.60
2018-03-16T04:25:12.187Z,48.60
2018-03-16T04:27:13.256Z,53.43
2018-03-16T04:29:14.201Z,48.30
2018-03-16T04:31:15.201Z,47.03
2018-03-16T04:33:16.296Z,50.80
2018-03-16T04:35:17.517Z,49.67
2018-03-16T04:37:18.615Z,49.97
2018-03-16T04:39:20.350Z,50.93
2018-03-16T04:41:21.428Z,47.90
2018-03-16T04:43:22.399Z,48.47
2018-03-16T04:45:23.446Z,49.20
2018-03-16T04:47:24.478Z,50.20
2018-03-16T04:49:26.321Z,50.57
2018-03-16T04:51:27.270Z,50.73
2018-03-16T04:53:28.335Z,49.30
2018-03-16T04:55:30.212Z,52.43
2018-03-16T04:57:31.166Z,51.77
2018-03-16T04:59:32.122Z,54.20
2018-03-16T05:01:33.231Z,49.67
2018-03-16T05:03:34.187Z,52.90
2018-03-16T05:05:35.915Z,52.53
2018-03-16T05:07:36.868Z,52.67
2018-03-16T05:09:37.819Z,48.47
2018-03-16T05:11:38.775Z,53.30
2018-03-16T05:13:40.793Z,48.20
2018-03-16T05:15:41.855Z,50.50
2018-03-16T05:17:43.487Z,55.57
2018-03-16T05:19:44.467Z,51.73
2018-03-16T05:21:45.427Z,51.97
2018-03-16T05:23:46.424Z,50.00
2018-03-16T05:25:47.389Z,53.00
2018-03-16T05:27:48.332Z,56.03
2018-03-16T05:29:49.299Z,54.00
2018-03-16T05:31:50.294Z,52.87
2018-03-16T05:33:52.032Z,56.43
2018-03-16T05:35:53.881Z,54.90
2018-03-16T05:37:54.853Z,49.17
2018-03-16T05:39:55.778Z,47.77
2018-03-16T05:41:56.738Z,51.20
2018-03-16T05:43:57.730Z,50.80
2018-03-16T05:45:58.850Z,50.70
2018-03-16T05:48:00.546Z,55.20
2018-03-16T05:50:01.537Z,49.17
2018-03-16T05:52:02.491Z,51.80
2018-03-16T05:54:03.492Z,48.30
2018-03-16T05:56:04.390Z,49.97
2018-03-16T05:58:05.376Z,52.47
2018-03-16T06:00:06.358Z,51.30
2018-03-16T06:02:07.324Z,47.57
2018-03-16T06:04:08.284Z,47.20
2018-03-16T06:06:10.024Z,50.10
2018-03-16T06:08:10.974Z,47.17
2018-03-16T06:10:12.029Z,49.90
2018-03-16T06:12:13.001Z,48.40
2018-03-16T06:14:14.710Z,50.10
2018-03-16T06:16:15.738Z,50.10
2018-03-16T06:18:16.707Z,44.10
2018-03-16T06:20:17.674Z,47.10
2018-03-16T06:22:18.623Z,43.93
2018-03-16T06:24:19.615Z,49.10
2018-03-16T06:26:20.602Z,45.30
2018-03-16T06:28:21.676Z,46.00
2018-03-16T06:30:23.455Z,44.53
2018-03-16T06:32:24.409Z,43.17
2018-03-16T06:34:25.486Z,46.40
2018-03-16T06:36:26.470Z,47.43
2018-03-16T06:38:28.155Z,44.80
2018-03-16T06:40:29.830Z,39.50
2018-03-16T06:42:30.875Z,43.03
2018-03-16T06:44:31.876Z,45.00
2018-03-16T06:46:32.789Z,46.10
2018-03-16T06:48:33.805Z,42.57
2018-03-16T06:50:34.790Z,42.20
2018-03-16T06:52:35.788Z,42.50
2018-03-16T06:54:36.750Z,44.03
2018-03-16T06:56:38.427Z,38.57
2018-03-16T06:58:39.407Z,43.00
2018-03-16T07:00:40.350Z,40.83
2018-03-16T07:02:41.330Z,40.43
2018-03-16T07:04:44.055Z,40.17
2018-03-16T07:06:45.030Z,36.40
2018-03-16T07:08:46.027Z,42.87
2018-03-16T07:10:47.004Z,38.10
2018-03-16T07:12:47.947Z,38.40
2018-03-16T07:14:48.939Z,38.17
2018-03-16T07:16:49.961Z,39.37
2018-03-16T07:18:51.028Z,39.40
2018-03-16T07:20:52.096Z,37.67
2018-03-16T07:22:53.806Z,35.87
2018-03-16T07:24:54.791Z,36.60
2018-03-16T07:26:55.728Z,34.37
2018-03-16T07:28:57.253Z,36.40
2018-03-16T07:30:58.226Z,35.00
2018-03-16T07:32:59.151Z,33.33
2018-03-16T07:35:00.090Z,33.20
2018-03-16T07:37:01.079Z,32.20
2018-03-16T07:39:02.155Z,31.93
2018-03-16T07:41:03.161Z,28.73
2018-03-16T07:43:04.142Z,28.13
2018-03-16T07:45:05.819Z,29.70
2018-03-16T07:47:06.743Z,29.93
2018-03-16T07:49:08.430Z,28.70
2018-03-16T07:51:09.375Z,26.70
2018-03-16T07:53:10.371Z,26.97
2018-03-16T07:55:11.395Z,27.57
2018-03-16T07:57:12.354Z,25.60
2018-03-16T07:59:13.287Z,25.33
2018-03-16T08:01:14.241Z,26.47
2018-03-16T08:03:15.340Z,26.67
2018-03-16T08:05:17.100Z,27.23
2018-03-16T08:07:18.064Z,25.43
2018-03-16T08:09:19.123Z,25.57
2018-03-16T08:11:20.195Z,24.53
2018-03-16T08:13:21.212Z,26.40
2018-03-16T08:15:22.620Z,27.50
2018-03-16T08:17:23.619Z,23.73
2018-03-16T08:19:24.679Z,25.37
2018-03-16T08:21:25.619Z,21.83
2018-03-16T08:23:26.559Z,23.37
2018-03-16T08:25:28.255Z,24.63
2018-03-16T08:27:29.297Z,23.17
2018-03-16T08:29:31.132Z,24.30
2018-03-16T08:31:32.888Z,21.67
2018-03-16T08:33:33.847Z,24.60
2018-03-16T08:35:34.783Z,24.93
2018-03-16T08:37:35.743Z,24.00
2018-03-16T08:39:36.715Z,22.40
2018-03-16T08:41:37.673Z,24.97
2018-03-16T08:43:38.611Z,24.67
2018-03-16T08:45:39.625Z,24.13
2018-03-16T08:47:40.560Z,24.10
2018-03-16T08:49:41.501Z,23.07
2018-03-16T08:51:42.666Z,21.57
2018-03-16T08:53:43.681Z,25.80
2018-03-16T08:55:45.400Z,23.53
2018-03-16T08:57:46.370Z,24.40
2018-03-16T08:59:47.338Z,25.50
2018-03-16T09:01:48.331Z,23.60
2018-03-16T09:03:49.294Z,22.87
2018-03-16T09:05:50.226Z,27.07
2018-03-16T09:07:51.206Z,24.57
2018-03-16T09:09:52.148Z,25.53
2018-03-16T09:11:53.840Z,24.37
2018-03-16T09:13:54.842Z,23.83
2018-03-16T09:15:55.803Z,25.30
2018-03-16T09:17:56.760Z,25.23
2018-03-16T09:19:57.742Z,25.47
2018-03-16T09:21:58.686Z,26.47
2018-03-16T09:23:59.624Z,27.17
2018-03-16T09:26:00.566Z,25.90
2018-03-16T09:28:01.520Z,27.80
2018-03-16T09:30:02.522Z,25.60
2018-03-16T09:32:04.226Z,27.73
2018-03-16T09:34:05.206Z,27.10
2018-03-16T09:36:06.148Z,27.53
2018-03-16T09:38:07.133Z,28.70
2018-03-16T09:40:08.218Z,29.17
2018-03-16T09:42:09.272Z,29.63
2018-03-16T09:44:10.322Z,28.00
2018-03-16T09:46:11.282Z,30.50
2018-03-16T09:48:12.243Z,25.57
2018-03-16T09:50:13.179Z,31.27
2018-03-16T09:52:14.143Z,32.03
2018-03-16T09:54:15.159Z,30.20
2018-03-16T09:56:16.176Z,28.80
2018-03-16T09:58:17.123Z,26.00
2018-03-16T10:00:18.055Z,28.10
2018-03-16T10:02:19.755Z,23.20
2018-03-16T10:04:20.719Z,26.80
2018-03-16T10:06:21.678Z,27.57
2018-03-16T10:08:22.623Z,26.27
2018-03-16T10:10:23.542Z,25.00
2018-03-16T10:12:24.536Z,22.50
2018-03-16T10:14:26.234Z,26.17
2018-03-16T10:16:27.209Z,31.10
2018-03-16T10:18:29.188Z,23.50
2018-03-16T10:20:30.147Z,25.67
2018-03-16T10:22:31.080Z,22.10
2018-03-16T10:24:32.103Z,23.47
2018-03-16T10:26:34.375Z,26.97
2018-03-16T10:28:35.460Z,25.50
2018-03-16T10:30:36.422Z,23.90
2018-03-16T10:32:38.098Z,26.97
2018-03-16T10:34:39.139Z,24.87
2018-03-16T10:36:40.831Z,23.93
2018-03-16T10:38:42.079Z,20.70
2018-03-16T10:40:43.031Z,23.40
2018-03-16T10:42:44.251Z,24.90
2018-03-16T10:44:45.991Z,26.50
2018-03-16T10:46:46.944Z,23.47
2018-03-16T10:48:47.987Z,25.13
2018-03-16T10:50:49.007Z,26.00
2018-03-16T10:52:49.961Z,24.53
2018-03-16T10:54:50.923Z,23.97
2018-03-16T10:56:51.980Z,26.80
2018-03-16T10:58:52.946Z,27.30
2018-03-16T11:00:58.591Z,25.93
2018-03-16T11:03:06.381Z,25.10
2018-03-16T11:05:13.842Z,26.00
2018-03-16T11:07:17.636Z,25.00
2018-03-16T11:09:18.646Z,26.47
2018-03-16T11:11:19.571Z,25.70
2018-03-16T11:13:20.547Z,25.33
2018-03-16T11:15:22.223Z,25.13
2018-03-16T11:17:23.212Z,24.17
2018-03-16T11:19:24.196Z,23.90
2018-03-16T11:21:25.903Z,22.30
2018-03-16T11:23:27.650Z,24.97
2018-03-16T11:25:28.650Z,24.77
2018-03-16T11:27:29.610Z,22.53
2018-03-16T11:29:30.675Z,23.87
2018-03-16T11:31:32.500Z,24.57
2018-03-16T11:33:33.515Z,23.37
2018-03-16T11:35:34.481Z,23.43
2018-03-16T11:37:35.467Z,20.30
2018-03-16T11:39:36.392Z,23.10
2018-03-16T11:41:37.343Z,21.63
2018-03-16T11:43:38.363Z,22.13
2018-03-16T11:45:39.311Z,23.70
2018-03-16T11:47:40.284Z,24.07
2018-03-16T11:49:41.237Z,23.50
2018-03-16T11:51:42.206Z,23.80
2018-03-16T11:53:44.036Z,22.73
2018-03-16T11:55:45.002Z,23.53
2018-03-16T11:57:46.043Z,20.03
2018-03-16T11:59:47.062Z,21.77
2018-03-16T12:01:48.101Z,20.60
2018-03-16T12:03:49.369Z,21.87
2018-03-16T12:05:50.414Z,21.90
2018-03-16T12:07:51.406Z,21.60
2018-03-16T12:09:53.116Z,22.63
2018-03-16T12:11:54.119Z,20.90
2018-03-16T12:13:55.132Z,22.27
2018-03-16T12:15:56.210Z,20.47
2018-03-16T12:17:58.459Z,19.93
2018-03-16T12:19:59.473Z,18.23
2018-03-16T12:22:00.459Z,20.70
2018-03-16T12:24:01.437Z,19.80
2018-03-16T12:26:02.399Z,18.63
2018-03-16T12:28:03.657Z,20.97
2018-03-16T12:30:04.901Z,19.13
2018-03-16T12:32:05.918Z,17.67
2018-03-16T12:34:07.779Z,21.00
2018-03-16T12:36:08.790Z,19.80
2018-03-16T12:38:09.764Z,17.73
2018-03-16T12:40:10.733Z,23.33
2018-03-16T12:42:12.500Z,19.10
2018-03-16T12:44:13.485Z,19.37
2018-03-16T12:46:14.428Z,20.00
2018-03-16T12:48:15.414Z,19.27
2018-03-16T12:50:16.378Z,19.20
2018-03-16T12:52:18.461Z,19.20
2018-03-16T12:54:19.608Z,17.87
2018-03-16T12:56:20.567Z,18.80
2018-03-16T12:58:21.524Z,18.03
2018-03-16T13:00:22.522Z,18.87
2018-03-16T13:02:23.461Z,19.87
2018-03-16T13:04:24.534Z,23.60
2018-03-16T13:06:25.501Z,23.90
2018-03-16T13:08:26.523Z,21.87
2018-03-16T13:10:28.271Z,19.10
2018-03-16T13:12:29.206Z,19.73
2018-03-16T13:14:30.175Z,16.33
2018-03-16T13:16:31.888Z,16.07
2018-03-16T13:18:32.860Z,16.80
2018-03-16T13:20:33.838Z,16.00
2018-03-16T13:22:35.537Z,19.63
2018-03-16T13:24:36.495Z,19.53
2018-03-16T13:26:37.440Z,15.60
2018-03-16T13:28:38.405Z,17.30
2018-03-16T13:30:39.452Z,17.77
2018-03-16T13:32:40.412Z,14.47
2018-03-16T13:34:41.470Z,14.43
2018-03-16T13:36:43.196Z,17.10
2018-03-16T13:38:44.335Z,14.40
2018-03-16T13:40:45.350Z,14.93
2018-03-16T13:42:46.345Z,16.63
2018-03-16T13:44:47.340Z,17.40
2018-03-16T13:46:48.367Z,18.03
2018-03-16T13:48:50.112Z,17.73
2018-03-16T13:50:51.125Z,16.77
2018-03-16T13:52:52.197Z,17.40
2018-03-16T13:54:53.230Z,14.20
2018-03-16T13:56:54.200Z,16.57
2018-03-16T13:58:55.154Z,16.17
2018-03-16T14:00:56.270Z,17.50
2018-03-16T14:02:58.439Z,16.57
2018-03-16T14:04:59.486Z,15.90
2018-03-16T14:07:00.556Z,17.60
2018-03-16T14:09:02.333Z,16.13
2018-03-16T14:11:03.382Z,16.97
2018-03-16T14:13:04.379Z,19.17
2018-03-16T14:15:05.407Z,18.03
2018-03-16T14:17:06.400Z,15.73
2018-03-16T14:19:07.920Z,17.40
2018-03-16T14:21:09.011Z,15.10
2018-03-16T14:23:10.085Z,17.10
2018-03-16T14:25:11.077Z,16.40
2018-03-16T14:27:12.312Z,18.90
2018-03-16T14:29:14.330Z,17.23
2018-03-16T14:31:25.626Z,17.67
2018-03-16T14:33:26.885Z,15.83
2018-03-16T14:35:27.862Z,18.10
2018-03-16T14:37:28.832Z,18.30
2018-03-16T14:39:29.965Z,16.43
2018-03-16T14:41:31.714Z,17.70
2018-03-16T14:43:32.744Z,19.90
2018-03-16T14:45:33.791Z,16.70
2018-03-16T14:47:34.893Z,17.97
2018-03-16T14:49:35.945Z,17.50
2018-03-16T14:51:37.010Z,16.80
2018-03-16T14:53:37.996Z,19.17
2018-03-16T14:55:39.998Z,19.23
2018-03-16T14:57:40.954Z,19.07
2018-03-16T14:59:42.712Z,16.93
2018-03-16T15:01:43.828Z,16.30
2018-03-16T15:03:45.132Z,15.70
2018-03-16T15:05:46.792Z,15.90
2018-03-16T15:07:47.890Z,15.70
2018-03-16T15:09:52.744Z,14.93
2018-03-16T15:11:53.748Z,16.30
2018-03-16T15:13:54.773Z,16.07
2018-03-16T15:15:55.888Z,14.83
2018-03-16T15:17:58.214Z,16.25
2018-03-16T15:19:59.365Z,14.80
2018-03-16T15:22:00.383Z,15.83
2018-03-16T15:25:49.155Z,15.13
2018-03-16T15:27:50.153Z,14.27
2018-03-16T15:29:51.159Z,14.73
2018-03-16T15:31:52.275Z,12.63
2018-03-16T15:33:53.256Z,11.70
2018-03-16T15:35:54.249Z,12.03
2018-03-16T15:37:55.253Z,14.90
2018-03-16T15:39:56.248Z,13.00
2018-03-16T15:41:57.236Z,14.27
2018-03-16T15:43:58.938Z,15.20
2018-03-16T15:45:59.952Z,13.50
2018-03-16T15:48:00.908Z,14.00
2018-03-16T15:50:02.668Z,13.27
2018-03-16T15:52:03.647Z,16.45
2018-03-16T15:54:04.661Z,14.17
2018-03-16T15:56:05.652Z,14.03
2018-03-16T15:58:06.627Z,12.75
2018-03-16T16:00:08.344Z,13.57
2018-03-16T16:02:09.316Z,11.30
2018-03-16T16:04:10.280Z,13.45
2018-03-16T16:06:11.983Z,13.10
2018-03-16T16:08:12.947Z,9.70
2018-03-16T16:10:13.895Z,10.63
2018-03-16T16:12:14.835Z,11.90
2018-03-16T16:14:15.763Z,12.43
2018-03-16T16:16:16.744Z,12.00
2018-03-16T16:18:17.784Z,11.73
2018-03-16T16:20:18.752Z,11.20
2018-03-16T16:22:20.529Z,10.70
2018-03-16T16:24:21.524Z,11.50
2018-03-16T16:26:22.504Z,11.07
2018-03-16T16:28:23.443Z,9.40
2018-03-16T16:30:24.399Z,11.53
2018-03-16T16:32:25.359Z,10.77
2018-03-16T16:34:27.090Z,11.48
2018-03-16T16:36:28.036Z,11.70
2018-03-16T16:38:28.999Z,11.00
2018-03-16T16:40:29.993Z,9.90
2018-03-16T16:42:30.972Z,9.30
2018-03-16T16:44:31.931Z,8.53
2018-03-16T16:46:32.930Z,11.43
2018-03-16T16:48:33.917Z,9.07
2018-03-16T16:50:34.899Z,9.18
2018-03-16T16:52:36.645Z,10.60
2018-03-16T16:54:38.384Z,8.85
2018-03-16T16:56:39.346Z,9.20
2018-03-16T16:58:40.313Z,9.63
2018-03-16T17:00:42.082Z,8.00
2018-03-16T17:02:43.880Z,10.18
2018-03-16T17:04:44.861Z,10.70
2018-03-16T17:06:45.818Z,12.03
2018-03-16T17:08:46.776Z,9.83
2018-03-16T17:10:47.751Z,9.80
2018-03-16T17:12:48.764Z,10.10
2018-03-16T17:14:50.468Z,9.18
2018-03-16T17:16:51.436Z,9.48
2018-03-16T17:18:52.383Z,8.83
2018-03-16T17:20:53.373Z,9.10
2018-03-16T17:22:55.086Z,7.97
2018-03-16T17:24:56.071Z,8.13
2018-03-16T17:26:57.046Z,9.00
2018-03-16T17:28:58.020Z,10.60
2018-03-16T17:30:58.984Z,9.30
2018-03-16T17:33:00.039Z,8.85
2018-03-16T17:35:01.112Z,7.78
2018-03-16T17:37:02.185Z,9.48
2018-03-16T17:39:03.144Z,9.20
2018-03-16T17:41:04.160Z,9.37
2018-03-16T17:43:05.148Z,8.30
2018-03-16T17:45:06.104Z,8.77
2018-03-16T17:47:07.128Z,8.50
2018-03-16T17:49:08.111Z,7.82
2018-03-16T17:51:09.043Z,8.90
2018-03-16T17:53:09.995Z,15.93
2018-03-16T17:55:10.988Z,14.37
2018-03-16T17:57:12.745Z,15.57
2018-03-16T17:59:14.448Z,11.82
2018-03-16T18:01:15.480Z,14.07
2018-03-16T18:03:16.459Z,10.55
2018-03-16T18:05:18.122Z,10.60
2018-03-16T18:07:19.954Z,11.50
2018-03-16T18:09:20.939Z,11.85
2018-03-16T18:11:21.964Z,8.20
2018-03-16T18:13:22.923Z,10.90
2018-03-16T18:15:23.963Z,10.85
2018-03-16T18:17:25.500Z,8.93
2018-03-16T18:19:26.529Z,9.40
2018-03-16T18:21:28.228Z,14.02
2018-03-16T18:23:29.221Z,8.63
2018-03-16T18:25:30.412Z,9.50
2018-03-16T18:27:31.471Z,8.32
2018-03-16T18:29:32.434Z,8.05
2018-03-16T18:31:33.622Z,7.10
2018-03-16T18:33:34.694Z,7.55
2018-03-16T18:35:35.839Z,8.38
2018-03-16T18:37:36.880Z,8.00
2018-03-16T18:39:37.848Z,8.10
2018-03-16T18:41:38.839Z,7.83
2018-03-16T18:43:39.954Z,8.88
2018-03-16T18:45:40.919Z,6.53
2018-03-16T18:47:41.885Z,8.33
2018-03-16T18:49:42.889Z,9.40
2018-03-16T18:51:43.852Z,7.95
2018-03-16T18:53:44.877Z,8.02
2018-03-16T18:55:45.847Z,8.10
2018-03-16T18:57:46.944Z,6.20
2018-03-16T18:59:47.859Z,6.57
2018-03-16T19:01:48.920Z,9.77
2018-03-16T19:03:50.703Z,8.75
2018-03-16T19:05:51.663Z,6.87
2018-03-16T19:07:53.490Z,7.80
2018-03-16T19:09:54.465Z,7.30
2018-03-16T19:11:56.175Z,7.83
2018-03-16T19:13:57.231Z,7.53
2018-03-16T19:15:58.242Z,7.32
2018-03-16T19:17:59.283Z,7.50
2018-03-16T19:20:00.352Z,6.40
2018-03-16T19:22:01.597Z,7.40
2018-03-16T19:24:02.684Z,8.45
2018-03-16T19:26:03.807Z,7.45
2018-03-16T19:28:04.815Z,6.93
2018-03-16T19:30:06.668Z,6.97
2018-03-16T19:32:07.656Z,7.00
2018-03-16T19:34:08.615Z,7.00
2018-03-16T19:36:09.618Z,7.90
2018-03-16T19:38:11.509Z,7.57
2018-03-16T19:40:12.542Z,7.43
2018-03-16T19:42:13.603Z,6.15
2018-03-16T19:44:14.590Z,7.12
2018-03-16T19:46:15.536Z,7.53
2018-03-16T19:48:16.507Z,7.80
2018-03-16T19:50:17.506Z,7.53
2018-03-16T19:52:18.580Z,6.65
2018-03-16T19:54:19.606Z,7.50
2018-03-16T19:56:21.247Z,7.60
2018-03-16T19:58:22.448Z,7.00
2018-03-16T20:00:23.411Z,7.90
2018-03-16T20:02:24.580Z,7.62
2018-03-16T20:04:25.634Z,7.00
2018-03-16T20:06:26.760Z,5.87
2018-03-16T20:08:28.536Z,7.62
2018-03-16T20:10:30.271Z,8.95
2018-03-16T20:12:32.170Z,6.57
2018-03-16T20:14:33.297Z,7.72
2018-03-16T20:16:35.550Z,7.18
2018-03-16T20:18:36.608Z,6.60
2018-03-16T20:20:37.589Z,7.12
2018-03-16T20:22:39.284Z,8.37
2018-03-16T20:24:40.303Z,7.70
2018-03-16T20:26:41.301Z,9.02
2018-03-16T20:28:42.299Z,8.82
2018-03-16T20:30:44.033Z,7.68
2018-03-16T20:32:45.140Z,7.35
2018-03-16T20:34:46.154Z,6.82
2018-03-16T20:36:47.944Z,8.25
2018-03-16T20:38:48.935Z,7.90
2018-03-16T20:40:50.787Z,7.10
2018-03-16T20:42:51.789Z,7.78
2018-03-16T20:44:53.343Z,9.73
2018-03-16T20:46:54.426Z,8.13
2018-03-16T20:48:55.403Z,8.45
2018-03-16T20:50:56.413Z,9.10
2018-03-16T20:52:57.380Z,8.67
2018-03-16T20:54:58.521Z,8.27
2018-03-16T20:57:01.809Z,7.85
2018-03-16T20:59:02.876Z,8.05
2018-03-16T21:01:03.887Z,7.90
2018-03-16T21:03:08.873Z,8.00
2018-03-16T21:05:09.985Z,8.55
2018-03-16T21:07:11.002Z,7.85
2018-03-16T21:09:13.782Z,6.80
2018-03-16T21:11:15.119Z,6.87
2018-03-16T21:13:16.952Z,7.57
2018-03-16T21:15:17.965Z,8.07
2018-03-16T21:17:18.940Z,9.40
2018-03-16T21:19:19.902Z,7.93
2018-03-16T21:21:21.040Z,8.83
2018-03-16T21:23:22.043Z,8.02
2018-03-16T21:25:24.140Z,7.65
2018-03-16T21:27:25.256Z,7.20
2018-03-16T21:29:26.256Z,7.97
2018-03-16T21:31:27.239Z,7.40
2018-03-16T21:33:28.195Z,7.63
2018-03-16T21:35:29.168Z,7.60
2018-03-16T21:37:30.125Z,7.57
2018-03-16T21:39:31.087Z,7.33
2018-03-16T21:41:33.118Z,7.62
2018-03-16T21:43:34.828Z,8.85
2018-03-16T21:45:35.855Z,7.07
2018-03-16T21:47:37.553Z,7.05
2018-03-16T21:49:39.454Z,5.57
2018-03-16T21:51:40.439Z,6.30
2018-03-16T21:53:41.398Z,7.27
2018-03-16T21:55:42.583Z,6.70
2018-03-16T21:57:43.596Z,7.18
2018-03-16T21:59:45.431Z,6.05
2018-03-16T22:01:47.641Z,6.25
2018-03-16T22:03:48.677Z,5.20
2018-03-16T22:05:49.655Z,5.05
2018-03-16T22:07:50.799Z,6.70
2018-03-16T22:09:51.794Z,5.40
2018-03-16T22:11:52.985Z,6.00
2018-03-16T22:13:53.975Z,6.20
2018-03-16T22:15:56.404Z,8.13
2018-03-16T22:17:57.473Z,5.55
2018-03-16T22:19:58.537Z,6.00
2018-03-16T22:21:59.853Z,7.15
2018-03-16T22:24:00.912Z,5.82
2018-03-16T22:26:02.307Z,7.50
2018-03-16T22:28:04.349Z,9.23
2018-03-16T22:30:06.296Z,5.50
2018-03-16T22:32:07.398Z,6.15
2018-03-16T22:34:08.486Z,6.95
2018-03-16T22:36:10.975Z,5.82
2018-03-16T22:38:12.827Z,5.75
2018-03-16T22:40:13.913Z,5.40
2018-03-16T22:42:15.490Z,4.57
2018-03-16T22:44:16.652Z,4.97
2018-03-16T22:46:17.731Z,5.72
2018-03-16T22:48:18.805Z,5.50
2018-03-16T22:50:19.813Z,5.70
2018-03-16T22:52:21.631Z,5.50
2018-03-16T22:54:25.011Z,5.50
2018-03-16T22:56:26.129Z,6.12
2018-03-16T22:58:27.259Z,5.28
2018-03-16T23:00:28.340Z,5.43
2018-03-16T23:02:29.424Z,6.40
2018-03-16T23:04:30.507Z,5.53
2018-03-16T23:06:31.493Z,6.28
2018-03-16T23:08:52.935Z,6.87
2018-03-16T23:10:54.103Z,5.43
2018-03-16T23:12:58.480Z,5.55
2018-03-16T23:14:59.508Z,5.78
2018-03-16T23:17:00.524Z,5.22
2018-03-16T23:19:01.508Z,5.47
2018-03-16T23:21:03.463Z,4.67
2018-03-16T23:23:05.218Z,4.72
2018-03-16T23:25:06.236Z,5.80
2018-03-16T23:27:07.395Z,5.37
2018-03-16T23:29:08.388Z,4.60
2018-03-16T23:31:10.313Z,4.90
2018-03-16T23:33:11.435Z,5.15
2018-03-16T23:35:12.435Z,5.72
2018-03-16T23:37:13.403Z,5.17
2018-03-16T23:39:15.488Z,4.30
2018-03-16T23:41:18.698Z,5.47
2018-03-16T23:43:19.710Z,5.85
2018-03-16T23:45:21.506Z,4.37
2018-03-16T23:47:24.196Z,5.03
2018-03-16T23:49:25.207Z,5.07
2018-03-16T23:51:26.184Z,4.80
2018-03-16T23:53:27.156Z,4.87
2018-03-16T23:55:28.204Z,4.43
2018-03-16T23:57:29.569Z,4.90
2018-03-16T23:59:30.581Z,5.87
